createdAt,value
2023-03-12T00:01:17.930Z,101362.22
2023-03-12T00:03:44.605Z,101349.44
2023-03-12T00:06:12.136Z,101361.50
2023-03-12T00:08:39.528Z,101352.94
2023-03-12T00:11:10.993Z,101340.56
2023-03-12T00:13:37.784Z,101340.78
2023-03-12T00:16:06.744Z,101335.75
2023-03-12T00:18:33.349Z,101346.06
2023-03-12T00:21:00.136Z,101337.41
2023-03-12T00:23:26.930Z,101338.50
2023-03-12T00:25:53.525Z,101341.75
2023-03-12T00:28:20.420Z,101344.38
2023-03-12T00:30:47.030Z,101314.06
2023-03-12T00:33:13.854Z,101340.19
2023-03-12T00:35:40.466Z,101337.66
2023-03-12T00:38:07.044Z,101331.66
2023-03-12T00:40:33.576Z,101324.91
2023-03-12T00:43:00.154Z,101328.50
2023-03-12T00:45:26.756Z,101325.00
2023-03-12T00:47:53.351Z,101321.28
2023-03-12T00:50:19.960Z,101317.91
2023-03-12T00:52:46.564Z,101320.34
2023-03-12T00:55:13.508Z,101301.09
2023-03-12T00:57:40.169Z,101304.69
2023-03-12T01:00:10.979Z,101303.00
2023-03-12T01:02:39.118Z,101304.69
2023-03-12T01:05:08.134Z,101304.69
2023-03-12T01:07:36.317Z,101293.38
2023-03-12T01:10:03.676Z,101289.91
2023-03-12T01:12:30.247Z,101284.13
2023-03-12T01:14:56.793Z,101289.19
2023-03-12T01:17:23.336Z,101290.16
2023-03-12T01:19:49.888Z,101291.94
2023-03-12T01:22:16.453Z,101288.34
2023-03-12T01:24:43.002Z,101291.00
2023-03-12T01:27:09.583Z,101283.28
2023-03-12T01:29:36.102Z,101288.56
2023-03-12T01:32:02.666Z,101286.88
2023-03-12T01:34:30.762Z,101288.69
2023-03-12T01:36:57.348Z,101281.72
2023-03-12T01:39:25.724Z,101285.09
2023-03-12T01:41:52.295Z,101291.22
2023-03-12T01:44:18.910Z,101282.44
2023-03-12T01:46:46.165Z,101271.97
2023-03-12T01:49:34.380Z,101283.19
2023-03-12T01:52:03.471Z,101275.25
2023-03-12T01:54:33.014Z,101274.41
2023-03-12T01:57:01.757Z,101262.38
2023-03-12T01:59:36.618Z,101259.59
2023-03-12T02:02:04.953Z,101256.97
2023-03-12T02:04:33.736Z,101259.00
2023-03-12T02:07:07.467Z,101257.06
2023-03-12T02:09:37.568Z,101251.06
2023-03-12T02:12:04.669Z,101242.66
2023-03-12T02:14:31.990Z,101236.53
2023-03-12T02:16:58.819Z,101231.81
2023-03-12T02:20:01.921Z,101233.50
2023-03-12T02:22:29.471Z,101230.00
2023-03-12T02:25:07.732Z,101198.50
2023-03-12T02:27:37.342Z,101218.59
2023-03-12T02:30:05.154Z,101216.22
2023-03-12T02:32:38.398Z,101218.59
2023-03-12T02:35:06.764Z,101215.94
2023-03-12T02:37:33.441Z,101197.81
2023-03-12T02:40:15.569Z,101193.50
2023-03-12T02:42:42.153Z,101193.59
2023-03-12T02:45:08.997Z,101185.66
2023-03-12T02:47:35.557Z,101185.56
2023-03-12T02:50:02.134Z,101176.91
2023-03-12T02:52:30.568Z,101168.34
2023-03-12T02:54:57.140Z,101178.94
2023-03-12T02:57:23.677Z,101160.66
2023-03-12T02:59:50.188Z,101175.56
2023-03-12T03:02:16.754Z,101172.22
2023-03-12T03:04:43.341Z,101177.25
2023-03-12T03:07:10.060Z,101170.75
2023-03-12T03:09:36.636Z,101172.91
2023-03-12T03:12:03.341Z,101163.06
2023-03-12T03:14:29.916Z,101154.41
2023-03-12T03:16:56.497Z,101148.44
2023-03-12T03:19:23.196Z,101131.97
2023-03-12T03:21:49.804Z,101144.69
2023-03-12T03:24:16.892Z,101134.09
2023-03-12T03:26:44.206Z,101126.28
2023-03-12T03:29:10.787Z,101119.34
2023-03-12T03:31:37.343Z,101114.91
2023-03-12T03:34:04.104Z,101105.16
2023-03-12T03:36:30.729Z,101106.13
2023-03-12T03:38:57.296Z,101107.94
2023-03-12T03:41:23.839Z,101095.06
2023-03-12T03:43:50.441Z,101102.66
2023-03-12T03:46:17.066Z,101089.78
2023-03-12T03:48:43.700Z,101098.19
2023-03-12T03:51:11.611Z,101092.91
2023-03-12T03:53:38.317Z,101093.16
2023-03-12T03:56:09.862Z,101080.41
2023-03-12T03:58:36.529Z,101086.91
2023-03-12T04:01:03.480Z,101089.91
2023-03-12T04:03:30.160Z,101073.81
2023-03-12T04:05:59.823Z,101066.09
2023-03-12T04:08:26.969Z,101062.84
2023-03-12T04:10:53.556Z,101068.16
2023-03-12T04:13:20.745Z,101062.84
2023-03-12T04:15:53.471Z,101068.16
2023-03-12T04:18:20.384Z,101051.72
2023-03-12T04:20:46.990Z,101063.81
2023-03-12T04:23:13.586Z,101070.06
2023-03-12T04:25:40.171Z,101074.28
2023-03-12T04:28:06.810Z,101054.34
2023-03-12T04:30:33.626Z,101038.72
2023-03-12T04:33:00.240Z,101047.84
2023-03-12T04:35:26.819Z,101047.25
2023-03-12T04:37:53.377Z,101044.63
2023-03-12T04:40:20.029Z,101019.28
2023-03-12T04:42:47.314Z,101032.94
2023-03-12T04:45:14.408Z,101034.88
2023-03-12T04:47:41.195Z,101034.16
2023-03-12T04:50:08.578Z,101028.63
2023-03-12T04:52:35.178Z,101023.47
2023-03-12T04:55:02.146Z,101008.09
2023-03-12T04:57:28.782Z,101009.44
2023-03-12T04:59:55.445Z,100998.25
2023-03-12T05:02:22.005Z,101006.91
2023-03-12T05:04:48.560Z,101009.53
2023-03-12T05:07:15.120Z,101000.66
2023-03-12T05:09:41.672Z,101006.91
2023-03-12T05:12:08.537Z,100999.56
2023-03-12T05:14:35.120Z,100974.47
2023-03-12T05:17:01.675Z,100982.00
2023-03-12T05:19:28.250Z,100978.56
2023-03-12T05:21:54.805Z,100971.81
2023-03-12T05:24:22.548Z,100969.06
2023-03-12T05:26:49.133Z,100973.13
2023-03-12T05:29:15.718Z,100973.38
2023-03-12T05:31:42.357Z,100963.06
2023-03-12T05:34:12.238Z,100967.16
2023-03-12T05:36:39.073Z,100959.22
2023-03-12T05:39:05.923Z,100963.41
2023-03-12T05:41:32.483Z,100953.09
2023-03-12T05:43:59.583Z,100953.09
2023-03-12T05:46:27.698Z,100941.81
2023-03-12T05:48:54.528Z,100933.16
2023-03-12T05:51:21.679Z,100947.94
2023-03-12T05:53:48.359Z,100940.34
2023-03-12T05:56:17.776Z,100945.41
2023-03-12T05:58:44.367Z,100939.41
2023-03-12T06:01:15.612Z,100943.47
2023-03-12T06:03:43.126Z,100929.66
2023-03-12T06:06:10.769Z,100929.56
2023-03-12T06:08:37.482Z,100926.53
2023-03-12T06:11:04.200Z,100924.84
2023-03-12T06:13:31.162Z,100940.25
2023-03-12T06:16:08.804Z,100939.28
2023-03-12T06:18:36.430Z,100936.88
2023-03-12T06:21:22.059Z,100947.31
2023-03-12T06:23:49.906Z,100942.03
2023-03-12T06:26:16.980Z,100936.28
2023-03-12T06:28:44.946Z,100928.22
2023-03-12T06:31:11.843Z,100925.81
2023-03-12T06:33:38.858Z,100937.00
2023-03-12T06:36:07.649Z,100933.63
2023-03-12T06:38:35.144Z,100923.91
2023-03-12T06:41:02.871Z,100919.47
2023-03-12T06:43:31.328Z,100916.56
2023-03-12T06:45:59.671Z,100909.50
2023-03-12T06:48:27.902Z,100903.47
2023-03-12T06:50:54.573Z,100907.69
2023-03-12T06:53:21.342Z,100912.97
2023-03-12T06:55:50.720Z,100902.66
2023-03-12T06:58:17.390Z,100912.97
2023-03-12T07:00:44.012Z,100891.22
2023-03-12T07:03:10.592Z,100895.56
2023-03-12T07:05:37.166Z,100885.22
2023-03-12T07:08:03.820Z,100884.28
2023-03-12T07:10:31.574Z,100871.53
2023-03-12T07:12:58.200Z,100864.56
2023-03-12T07:15:24.760Z,100853.16
2023-03-12T07:17:51.330Z,100872.38
2023-03-12T07:20:18.097Z,100881.25
2023-03-12T07:22:44.947Z,100878.88
2023-03-12T07:25:11.885Z,100891.84
2023-03-12T07:27:38.430Z,100888.34
2023-03-12T07:30:05.750Z,100889.31
2023-03-12T07:32:33.626Z,100897.13
2023-03-12T07:35:00.572Z,100897.97
2023-03-12T07:37:27.279Z,100908.66
2023-03-12T07:39:54.786Z,100885.63
2023-03-12T07:42:21.759Z,100902.53
2023-03-12T07:44:48.591Z,100906.00
2023-03-12T07:47:23.559Z,100924.38
2023-03-12T07:49:50.930Z,100913.22
2023-03-12T07:52:19.449Z,100913.34
2023-03-12T07:54:46.246Z,100913.09
2023-03-12T07:57:12.947Z,100910.69
2023-03-12T07:59:39.681Z,100907.94
2023-03-12T08:02:06.857Z,100906.13
2023-03-12T08:04:33.518Z,100897.25
2023-03-12T08:07:00.233Z,100897.25
2023-03-12T08:09:26.808Z,100896.28
2023-03-12T08:11:53.404Z,100886.66
2023-03-12T08:14:20.051Z,100884.03
2023-03-12T08:16:46.844Z,100884.03
2023-03-12T08:19:13.393Z,100892.78
2023-03-12T08:21:39.948Z,100891.97
2023-03-12T08:24:06.870Z,100878.88
2023-03-12T08:26:33.604Z,100872.41
2023-03-12T08:29:00.469Z,100885.94
2023-03-12T08:31:28.895Z,100875.50
2023-03-12T08:33:55.488Z,100880.78
2023-03-12T08:36:22.673Z,100881.50
2023-03-12T08:38:49.387Z,100875.50
2023-03-12T08:41:15.965Z,100871.31
2023-03-12T08:43:42.563Z,100873.13
2023-03-12T08:46:11.825Z,100882.84
2023-03-12T08:48:39.597Z,100881.19
2023-03-12T08:51:07.608Z,100870.72
2023-03-12T08:53:36.236Z,100868.22
2023-03-12T08:56:04.108Z,100866.53
2023-03-12T08:58:30.926Z,100864.97
2023-03-12T09:00:57.897Z,100858.00
2023-03-12T09:03:25.079Z,100873.28
2023-03-12T09:06:01.745Z,100875.28
2023-03-12T09:08:28.336Z,100879.53
2023-03-12T09:10:54.864Z,100883.22
2023-03-12T09:13:21.428Z,100874.69
2023-03-12T09:15:47.967Z,100870.34
2023-03-12T09:18:14.592Z,100869.63
2023-03-12T09:20:43.079Z,100876.47
2023-03-12T09:23:09.751Z,100867.00
2023-03-12T09:25:36.332Z,100861.59
2023-03-12T09:28:02.880Z,100866.88
2023-03-12T09:30:30.692Z,100856.56
2023-03-12T09:32:57.449Z,100866.28
2023-03-12T09:35:24.034Z,100871.31
2023-03-12T09:37:51.584Z,100878.16
2023-03-12T09:40:22.850Z,100877.19
2023-03-12T09:42:59.433Z,100870.97
2023-03-12T09:45:33.051Z,100871.91
2023-03-12T09:48:04.429Z,100878.03
2023-03-12T09:50:40.556Z,100882.38
2023-03-12T09:53:28.660Z,100879.53
2023-03-12T09:55:57.557Z,100879.63
2023-03-12T09:58:36.208Z,100885.66
2023-03-12T10:01:17.330Z,100878.41
2023-03-12T10:03:50.004Z,100877.56
2023-03-12T10:06:20.452Z,100870.75
2023-03-12T10:09:02.344Z,100876.59
2023-03-12T10:11:42.886Z,100882.72
2023-03-12T10:14:34.176Z,100882.72
2023-03-12T10:17:42.264Z,100872.16
2023-03-12T10:20:41.897Z,100869.41
2023-03-12T10:23:21.593Z,100856.31
2023-03-12T10:26:00.240Z,100859.56
2023-03-12T10:28:37.690Z,100853.56
2023-03-12T10:31:16.065Z,100857.88
2023-03-12T10:33:52.307Z,100872.53
2023-03-12T10:36:21.155Z,100866.66
2023-03-12T10:38:49.435Z,100861.47
2023-03-12T10:41:19.031Z,100876.13
2023-03-12T10:43:45.834Z,100878.78
2023-03-12T10:46:15.435Z,100875.28
2023-03-12T10:48:43.276Z,100875.28
2023-03-12T10:51:12.485Z,100870.13
2023-03-12T10:53:40.176Z,100882.25
2023-03-12T10:56:06.739Z,100884.78
2023-03-12T10:58:40.150Z,100876.63
2023-03-12T11:01:19.259Z,100877.47
2023-03-12T11:03:46.646Z,100873.81
2023-03-12T11:06:30.249Z,100887.88
2023-03-12T11:09:16.334Z,100900.84
2023-03-12T11:11:45.302Z,100885.09
2023-03-12T11:14:19.890Z,100892.78
2023-03-12T11:16:46.840Z,100891.22
2023-03-12T11:19:25.726Z,100892.78
2023-03-12T11:22:03.453Z,100892.19
2023-03-12T11:24:30.694Z,100900.00
2023-03-12T11:27:05.088Z,100895.44
2023-03-12T11:29:40.117Z,100898.09
2023-03-12T11:32:15.095Z,100902.53
2023-03-12T11:34:42.179Z,100889.19
2023-03-12T11:37:27.651Z,100905.03
2023-03-12T11:40:15.367Z,100899.75
2023-03-12T11:42:57.055Z,100888.22
2023-03-12T11:45:26.348Z,100892.56
2023-03-12T11:48:05.076Z,100885.59
2023-03-12T11:51:06.885Z,100878.38
2023-03-12T11:53:51.684Z,100880.06
2023-03-12T11:56:29.387Z,100868.53
2023-03-12T11:58:59.907Z,100854.72
2023-03-12T12:01:26.416Z,100869.09
2023-03-12T12:04:26.309Z,100860.44
2023-03-12T12:07:04.895Z,100864.66
2023-03-12T12:09:57.779Z,100860.09
2023-03-12T12:12:39.522Z,100853.00
2023-03-12T12:15:23.210Z,100858.28
2023-03-12T12:17:57.265Z,100858.28
2023-03-12T12:20:42.292Z,100863.44
2023-03-12T12:23:26.955Z,100849.28
2023-03-12T12:26:05.628Z,100850.72
2023-03-12T12:28:38.368Z,100840.13
2023-03-12T12:31:31.483Z,100845.31
2023-03-12T12:34:02.007Z,100835.41
2023-03-12T12:36:33.744Z,100841.28
2023-03-12T12:39:06.903Z,100830.84
2023-03-12T12:41:38.614Z,100841.16
2023-03-12T12:44:13.404Z,100852.47
2023-03-12T12:46:45.302Z,100844.41
2023-03-12T12:49:50.901Z,100833.97
2023-03-12T12:52:22.087Z,100835.50
2023-03-12T12:55:03.731Z,100831.91
2023-03-12T12:57:56.985Z,100830.91
2023-03-12T13:00:41.900Z,100832.75
2023-03-12T13:03:17.502Z,100829.09
2023-03-12T13:05:56.988Z,100815.22
2023-03-12T13:08:44.911Z,100826.22
2023-03-12T13:11:20.261Z,100828.03
2023-03-12T13:13:50.262Z,100824.53
2023-03-12T13:16:36.587Z,100832.34
2023-03-12T13:19:06.537Z,100828.03
2023-03-12T13:21:39.175Z,100831.38
2023-03-12T13:24:18.539Z,100835.00
2023-03-12T13:27:18.910Z,100833.06
2023-03-12T13:29:46.081Z,100831.25
2023-03-12T13:32:34.790Z,100835.59
2023-03-12T13:35:13.401Z,100836.44
2023-03-12T13:37:52.281Z,100841.72
2023-03-12T13:40:52.021Z,100845.19
2023-03-12T13:43:51.993Z,100832.81
2023-03-12T13:46:18.481Z,100841.47
2023-03-12T13:48:47.773Z,100857.22
2023-03-12T13:51:20.694Z,100840.50
2023-03-12T13:53:52.304Z,100845.91
2023-03-12T13:56:21.297Z,100836.59
2023-03-12T13:59:03.696Z,100848.03
2023-03-12T14:01:36.841Z,100850.44
2023-03-12T14:04:12.398Z,100852.22
2023-03-12T14:07:31.179Z,100855.47
2023-03-12T14:10:18.266Z,100859.50
2023-03-12T14:13:19.893Z,100865.38
2023-03-12T14:16:00.032Z,100865.50
2023-03-12T14:18:30.368Z,100869.59
2023-03-12T14:21:00.616Z,100868.63
2023-03-12T14:23:34.141Z,100879.09
2023-03-12T14:26:04.146Z,100880.63
2023-03-12T14:28:36.051Z,100885.94
2023-03-12T14:31:16.997Z,100885.09
2023-03-12T14:34:11.685Z,100900.00
2023-03-12T14:36:46.928Z,100879.22
2023-03-12T14:39:37.901Z,100897.34
2023-03-12T14:42:07.898Z,100880.75
2023-03-12T14:44:37.418Z,100871.72
2023-03-12T14:47:11.571Z,100892.75
2023-03-12T14:49:45.874Z,100881.31
2023-03-12T14:52:23.120Z,100881.47
2023-03-12T14:55:01.086Z,100888.28
2023-03-12T14:57:28.001Z,100879.50
2023-03-12T14:59:57.052Z,100886.34
2023-03-12T15:02:25.055Z,100875.22
2023-03-12T15:04:56.218Z,100866.28
2023-03-12T15:07:38.566Z,100859.06
2023-03-12T15:10:20.104Z,100865.06
2023-03-12T15:12:47.082Z,100864.22
2023-03-12T15:15:39.195Z,100859.66
2023-03-12T15:18:16.170Z,100859.53
2023-03-12T15:20:43.350Z,100849.78
2023-03-12T15:23:13.499Z,100852.44
2023-03-12T15:25:40.853Z,100837.91
2023-03-12T15:28:10.540Z,100836.44
2023-03-12T15:30:39.030Z,100848.94
2023-03-12T15:33:17.844Z,100843.41
2023-03-12T15:35:59.879Z,100843.41
2023-03-12T15:38:26.891Z,100853.16
2023-03-12T15:40:58.533Z,100842.56
2023-03-12T15:43:26.436Z,100833.78
2023-03-12T15:46:01.290Z,100842.56
2023-03-12T15:48:40.447Z,100846.88
2023-03-12T15:51:16.381Z,100845.06
2023-03-12T15:53:42.813Z,100856.22
2023-03-12T15:56:09.563Z,100846.47
2023-03-12T15:58:41.627Z,100845.50
2023-03-12T16:01:13.608Z,100843.94
2023-03-12T16:03:42.451Z,100837.81
2023-03-12T16:06:15.137Z,100841.31
2023-03-12T16:08:46.534Z,100829.63
2023-03-12T16:11:17.592Z,100830.47
2023-03-12T16:13:45.817Z,100831.31
2023-03-12T16:16:13.863Z,100820.00
2023-03-12T16:18:41.755Z,100829.50
2023-03-12T16:21:08.898Z,100826.84
2023-03-12T16:23:35.665Z,100816.41
2023-03-12T16:26:04.624Z,100817.13
2023-03-12T16:28:33.562Z,100819.88
2023-03-12T16:31:00.131Z,100819.03
2023-03-12T16:33:26.722Z,100820.59
2023-03-12T16:35:53.405Z,100825.88
2023-03-12T16:38:20.015Z,100820.72
2023-03-12T16:40:49.567Z,100814.72
2023-03-12T16:43:21.719Z,100817.81
2023-03-12T16:45:50.123Z,100807.50
2023-03-12T16:48:20.103Z,100805.81
2023-03-12T16:50:49.977Z,100809.03
2023-03-12T16:53:17.019Z,100798.59
2023-03-12T16:55:55.728Z,100803.16
2023-03-12T16:58:24.061Z,100806.41
2023-03-12T17:00:52.869Z,100804.84
2023-03-12T17:03:35.509Z,100809.75
2023-03-12T17:06:03.261Z,100819.50
2023-03-12T17:08:29.783Z,100819.50
2023-03-12T17:10:57.556Z,100816.16
2023-03-12T17:13:28.028Z,100818.78
2023-03-12T17:15:55.771Z,100817.81
2023-03-12T17:18:22.870Z,100828.28
2023-03-12T17:20:51.688Z,100815.31
2023-03-12T17:23:19.009Z,100823.38
2023-03-12T17:25:45.866Z,100810.28
2023-03-12T17:28:14.314Z,100817.81
2023-03-12T17:30:41.179Z,100819.63
2023-03-12T17:33:11.938Z,100811.81
2023-03-12T17:35:39.851Z,100823.00
2023-03-12T17:38:06.846Z,100820.47
2023-03-12T17:40:33.896Z,100828.41
2023-03-12T17:43:00.404Z,100830.34
2023-03-12T17:45:27.491Z,100828.66
2023-03-12T17:47:54.070Z,100833.97
2023-03-12T17:50:20.694Z,100845.13
2023-03-12T17:52:47.257Z,100830.34
2023-03-12T17:55:13.985Z,100825.31
2023-03-12T17:57:40.814Z,100825.88
2023-03-12T18:00:12.681Z,100825.19
2023-03-12T18:02:40.930Z,100820.00
2023-03-12T18:05:11.579Z,100830.34
2023-03-12T18:07:38.673Z,100822.41
2023-03-12T18:10:07.690Z,100833.97
2023-03-12T18:12:34.963Z,100831.44
2023-03-12T18:15:01.585Z,100835.75
2023-03-12T18:17:28.125Z,100830.59
2023-03-12T18:19:54.692Z,100828.91
2023-03-12T18:22:21.290Z,100842.72
2023-03-12T18:24:47.998Z,100837.44
2023-03-12T18:27:14.572Z,100833.00
2023-03-12T18:29:41.321Z,100830.59
2023-03-12T18:32:08.626Z,100829.50
2023-03-12T18:34:35.510Z,100834.22
2023-03-12T18:37:02.072Z,100828.91
2023-03-12T18:39:28.685Z,100825.19
2023-03-12T18:41:56.035Z,100837.44
2023-03-12T18:44:22.930Z,100829.63
2023-03-12T18:46:51.819Z,100824.75
2023-03-12T18:49:18.618Z,100824.34
2023-03-12T18:51:45.454Z,100833.13
2023-03-12T18:54:12.856Z,100833.13
2023-03-12T18:56:40.933Z,100818.22
2023-03-12T18:59:09.886Z,100822.41
2023-03-12T19:01:37.168Z,100814.84
2023-03-12T19:04:03.970Z,100818.09
2023-03-12T19:06:40.821Z,100801.38
2023-03-12T19:09:14.955Z,100814.47
2023-03-12T19:11:41.651Z,100804.84
2023-03-12T19:14:08.252Z,100803.44
2023-03-12T19:16:34.960Z,100798.84
2023-03-12T19:19:01.609Z,100801.50
2023-03-12T19:21:28.214Z,100799.13
2023-03-12T19:23:54.833Z,100801.25
2023-03-12T19:26:21.459Z,100790.47
2023-03-12T19:28:48.043Z,100787.00
2023-03-12T19:31:15.360Z,100795.50
2023-03-12T19:33:42.940Z,100782.81
2023-03-12T19:36:09.713Z,100792.47
2023-03-12T19:38:36.505Z,100783.25
2023-03-12T19:41:03.077Z,100780.31
2023-03-12T19:43:29.679Z,100783.94
2023-03-12T19:45:56.366Z,100788.97
2023-03-12T19:48:25.330Z,100773.81
2023-03-12T19:50:53.929Z,100759.88
2023-03-12T19:53:20.533Z,100752.31
2023-03-12T19:55:51.122Z,100751.22
2023-03-12T19:58:17.779Z,100749.03
2023-03-12T20:00:44.717Z,100750.13
2023-03-12T20:03:11.324Z,100744.84
2023-03-12T20:05:37.932Z,100754.31
2023-03-12T20:08:04.624Z,100743.16
2023-03-12T20:10:32.374Z,100746.25
2023-03-12T20:12:59.294Z,100743.72
2023-03-12T20:15:26.421Z,100740.25
2023-03-12T20:17:54.879Z,100745.16
2023-03-12T20:20:21.504Z,100740.97
2023-03-12T20:22:48.067Z,100735.66
2023-03-12T20:25:14.676Z,100731.22
2023-03-12T20:27:41.231Z,100733.84
2023-03-12T20:30:09.410Z,100746.00
2023-03-12T20:32:36.195Z,100720.88
2023-03-12T20:35:02.840Z,100723.28
2023-03-12T20:37:29.395Z,100722.16
2023-03-12T20:39:55.980Z,100719.53
2023-03-12T20:42:22.599Z,100709.06
2023-03-12T20:44:49.180Z,100703.91
2023-03-12T20:47:15.792Z,100693.00
2023-03-12T20:49:42.316Z,100704.75
2023-03-12T20:52:08.827Z,100699.47
2023-03-12T20:54:35.365Z,100705.28
2023-03-12T20:57:01.926Z,100687.78
2023-03-12T20:59:28.528Z,100698.47
2023-03-12T21:01:55.317Z,100694.72
2023-03-12T21:04:21.889Z,100678.69
2023-03-12T21:06:51.622Z,100685.97
2023-03-12T21:09:18.652Z,100681.63
2023-03-12T21:11:45.243Z,100674.66
2023-03-12T21:14:11.763Z,100661.00
2023-03-12T21:16:38.373Z,100667.69
2023-03-12T21:19:04.994Z,100664.09
2023-03-12T21:21:32.231Z,100647.38
2023-03-12T21:23:58.754Z,100652.53
2023-03-12T21:26:25.339Z,100647.91
2023-03-12T21:28:51.920Z,100649.72
2023-03-12T21:31:18.588Z,100649.63
2023-03-12T21:33:45.458Z,100634.97
2023-03-12T21:36:13.786Z,100627.75
2023-03-12T21:38:42.685Z,100620.78
2023-03-12T21:41:15.685Z,100635.28
2023-03-12T21:43:43.828Z,100614.78
2023-03-12T21:46:16.039Z,100620.38
2023-03-12T21:48:47.663Z,100614.94
2023-03-12T21:51:16.255Z,100604.38
2023-03-12T21:53:43.205Z,100575.47
2023-03-12T21:56:10.062Z,100595.59
2023-03-12T21:58:37.022Z,100590.16
2023-03-12T22:01:15.750Z,100586.69
2023-03-12T22:03:43.893Z,100584.88
2023-03-12T22:06:11.476Z,100567.00
2023-03-12T22:08:38.859Z,100551.53
2023-03-12T22:11:07.456Z,100566.03
2023-03-12T22:13:34.446Z,100572.16
2023-03-12T22:16:03.731Z,100553.78
2023-03-12T22:18:30.478Z,100553.91
2023-03-12T22:21:03.285Z,100551.00
2023-03-12T22:23:30.283Z,100555.47
2023-03-12T22:26:01.249Z,100549.31
2023-03-12T22:28:27.801Z,100533.72
2023-03-12T22:31:00.590Z,100530.09
2023-03-12T22:33:28.381Z,100528.44
2023-03-12T22:35:55.213Z,100509.59
2023-03-12T22:38:22.818Z,100524.81
2023-03-12T22:40:49.911Z,100514.63
2023-03-12T22:43:16.526Z,100510.31
2023-03-12T22:45:43.572Z,100499.59
2023-03-12T22:48:10.205Z,100496.38
2023-03-12T22:50:36.825Z,100491.09
2023-03-12T22:53:03.632Z,100504.75
2023-03-12T22:55:30.225Z,100491.66
2023-03-12T22:57:56.805Z,100492.50
2023-03-12T23:00:23.618Z,100484.81
2023-03-12T23:02:50.380Z,100481.06
2023-03-12T23:05:17.399Z,100481.78
2023-03-12T23:07:44.036Z,100473.28
2023-03-12T23:10:10.914Z,100467.13
2023-03-12T23:12:37.504Z,100462.69
2023-03-12T23:15:04.283Z,100465.19
2023-03-12T23:17:30.809Z,100444.03
2023-03-12T23:19:57.369Z,100436.38
2023-03-12T23:22:23.927Z,100430.38
2023-03-12T23:24:50.537Z,100429.13
2023-03-12T23:27:17.150Z,100410.88
2023-03-12T23:29:43.732Z,100397.78
2023-03-12T23:32:10.262Z,100387.78
2023-03-12T23:34:36.806Z,100401.00
2023-03-12T23:37:03.572Z,100387.75
2023-03-12T23:39:30.970Z,100378.16
2023-03-12T23:41:57.912Z,100373.56
2023-03-12T23:44:24.915Z,100368.41
2023-03-12T23:46:51.576Z,100363.13
2023-03-12T23:49:18.310Z,100347.69
2023-03-12T23:51:44.960Z,100347.38
2023-03-12T23:54:11.505Z,100327.88
2023-03-12T23:56:39.868Z,100308.84
2023-03-12T23:59:08.754Z,100312.84
